Terminal Aerodrome Forecast
Issued by NWS

Home | Current Version | Previous Version | Text Only | Print | Product List | Glossary On
Versions: 1 2 3 4 5 6 7 8 9 10 11 12 13 14 15 16 17 18
335
FTUS44 KLZK 310227 AAA
TAFHRO
TAF AMD
KHRO 310227Z 3102/3124 10005KT P6SM -RA SCT040 BKN080 OVC250
     FM310600 11003KT P6SM VCSH SCT050 BKN250
     FM310900 VRB03KT 5SM BR FEW005 SCT030 OVC050
      TEMPO 3110/3114 3SM BR BKN025 OVC040
     FM311500 13006KT P6SM SCT020 BKN050 OVC250=

USA.gov is the U.S. government's official web portal to all federal, state and local government web resources and services.